Belo Vale, Brazil
Current Conditions -  °F | °C
As of 8:00 AM on Sunday 23 Nov 2014 (Local Time) from SBPR Reporting Station
Light Rain Light Rain  
Wind Chill: 70°   Ceiling: 1000
Heat Index: 70°   Visibility: 6mi
Dew Point: 68°   Wind: 0mph
Humidity: 94%   Direction: NA
Pressure: 30.03"   Gusts: NA
Location:  20.41°S, 44.02°W
Report Text: SBPR 231000Z 00000KT 9999 -RA BKN010 OVC080 21/20 Q1017
Loading
Personal Weather Stations






























Interactive Weather Map New forecast layout! Learn more

10-Day Weather Forecast

Advertisements
Track Severe Weather on mobile